Time;durP1;ratioP1;P1;durP2;ratioP2;P2;SDS_P1;SDS_P2;PMS_P1;PMS_P2;Temp;Humidity;BMP_temperature;BMP_pressure;BME280_temperature;BME280_humidity;BME280_pressure;Samples;Min_cycle;Max_cycle;Signal;HPM_P1;HPM_P2
2021/12/30 00:02:42;;;;;;;81.12;39.05;;;;;;;6.72;52.28;99597.98;2061093;93;25751;-77
2021/12/30 00:06:09;;;;;;;71.95;36.83;;;;;;;6.72;52.32;99599.28;2035571;93;25802;-78
2021/12/30 00:09:46;;;;;;;79.95;38.63;;;;;;;6.72;52.37;99595.39;2091678;92;25458;-76
2021/12/30 00:13:30;;;;;;;80.77;39.78;;;;;;;6.74;52.42;99604.06;2083896;92;25841;-77
2021/12/30 00:17:12;;;;;;;;;;;;;;;;;;;;;
2021/12/30 00:20:49;;;;;;;77.95;38.17;;;;;;;6.72;52.61;99605.33;2220774;86;26000;-79
2021/12/30 00:24:18;;;;;;;86.20;40.10;;;;;;;6.73;52.68;99613.55;2239762;86;25748;-77
2021/12/30 00:27:55;;;;;;;85.28;40.52;;;;;;;6.73;52.59;99610.96;2246889;86;25732;-79
2021/12/30 00:31:49;;;;;;;77.32;37.60;;;;;;;6.74;52.65;99616.59;2090396;91;25355;-78
2021/12/30 00:35:44;;;;;;;83.87;40.28;;;;;;;6.74;52.68;99614.00;2085544;91;25938;-78
2021/12/30 00:39:19;;;;;;;86.10;40.28;;;;;;;6.75;52.68;99604.52;2085719;92;25743;-77
2021/12/30 00:42:43;;;;;;;81.92;37.80;;;;;;;6.75;52.72;99598.94;2081894;92;25829;-79
2021/12/30 00:46:22;;;;;;;88.82;41.42;;;;;;;6.76;52.72;99604.99;2044415;94;25766;-79
2021/12/30 00:49:48;;;;;;;81.57;41.75;;;;;;;6.75;52.79;99609.30;2024473;93;25895;-78
2021/12/30 00:53:15;;;;;;;86.08;40.30;;;;;;;6.77;52.75;99619.69;2040502;94;25632;-77
2021/12/30 00:56:43;;;;;;;81.40;39.73;;;;;;;6.76;52.79;99612.34;2041385;94;25934;-76
2021/12/30 01:00:18;;;;;;;86.82;39.10;;;;;;;6.77;52.79;99601.13;2047002;94;25780;-79
2021/12/30 01:03:48;;;;;;;81.12;38.35;;;;;;;6.77;52.84;99593.78;2045209;94;25858;-77
2021/12/30 01:07:25;;;;;;;84.13;40.83;;;;;;;6.78;52.85;99595.53;2046486;94;26302;-77
2021/12/30 01:10:52;;;;;;;84.22;38.70;;;;;;;6.78;52.88;99590.34;2072266;93;26507;-77
2021/12/30 01:14:31;;;;;;;88.25;40.17;;;;;;;6.78;52.84;99578.30;2088572;92;25691;-78
2021/12/30 01:18:24;;;;;;;90.28;42.20;;;;;;;6.79;52.89;99580.05;2167042;86;25986;-77
2021/12/30 01:21:35;;;;;;;86.70;41.55;;;;;;;6.81;52.91;99585.25;2260104;86;25763;-77
2021/12/30 01:25:08;;;;;;;82.53;40.55;;;;;;;6.81;52.91;99588.71;2248630;86;25762;-78
2021/12/30 01:28:54;;;;;;;74.75;38.88;;;;;;;6.82;52.93;99590.91;2240770;86;25628;-78
2021/12/30 01:32:11;;;;;;;90.62;41.48;;;;;;;6.83;52.89;99588.77;2231391;86;25526;-77
2021/12/30 01:35:33;;;;;;;79.27;38.98;;;;;;;6.83;52.94;99585.75;2244240;86;26045;-78
2021/12/30 01:39:10;;;;;;;82.22;40.45;;;;;;;6.84;52.97;99595.27;2252487;86;25747;-79
2021/12/30 01:42:42;;;;;;;;;;;;;;;6.85;52.95;99599.64;2255237;86;25820;-75
2021/12/30 01:46:11;;;;;;;;;;;;;;;6.87;52.93;99599.66;2237691;86;26922;-78
2021/12/30 01:49:41;;;;;;;;;;;;;;;6.86;52.90;99596.63;2241712;86;25724;-79
2021/12/30 01:53:09;;;;;;;;;;;;;;;6.85;52.95;99598.34;2249735;86;25902;-76
2021/12/30 01:56:44;;;;;;;;;;;;;;;6.87;53.00;99598.37;2256293;86;25715;-78
2021/12/30 02:00:24;;;;;;;;;;;;;;;6.88;53.01;99598.81;2143036;90;25722;-77
2021/12/30 02:04:21;;;;;;;;;;;;;;;6.89;53.01;99603.61;2133199;91;26046;-80
2021/12/30 02:10:55;;;;;;;;;;;;;;;6.91;53.06;99595.01;2030456;95;25869;-78
2021/12/30 02:14:29;;;;;;;;;;;;;;;6.92;52.93;99593.29;2029553;96;25782;-77
2021/12/30 02:21:43;;;;;;;;;;;;;;;6.93;52.93;99597.23;2020276;96;25735;-77
2021/12/30 02:26:18;;;;;;;;;;;;;;;6.96;53.09;99600.33;1989531;94;26540;-79
2021/12/30 02:29:20;;;;;;;;;;;;;;;6.96;52.87;99602.50;1976170;97;25847;-76
2021/12/30 02:32:55;;;;;;;;;;;;;;;6.98;52.86;99603.39;1983129;94;25919;-76
2021/12/30 02:36:31;;;;;;;;;;;;;;;6.99;52.91;99596.52;2012448;94;25837;-79
2021/12/30 02:40:04;;;;;;;;;;;;;;;6.99;53.09;99598.69;2062733;95;25918;-77
2021/12/30 02:43:47;;;;;;;;;;;;;;;7.01;53.05;99601.30;2060069;94;25683;-77
2021/12/30 02:47:15;;;;;;;;;;;;;;;7.01;53.04;99601.30;2038817;95;25783;-77
2021/12/30 02:50:53;;;;;;;;;;;;;;;7.02;53.03;99593.98;2038455;94;25985;-79
2021/12/30 02:54:22;;;;;;;;;;;;;;;7.04;52.97;99598.80;2029276;96;25847;-79
2021/12/30 02:57:53;;;;;;;;;;;;;;;7.06;52.92;99594.55;2082820;92;25768;-78
2021/12/30 03:01:51;;;;;;;;;;;;;;;7.06;52.97;99601.89;2105290;90;25960;-77
2021/12/30 03:05:18;;;;;;;;;;;;;;;7.06;52.87;99598.00;2043423;96;25771;-77
2021/12/30 03:08:53;;;;;;;;;;;;;;;7.08;52.88;99602.78;2065737;95;25800;-77
2021/12/30 03:12:23;;;;;;;;;;;;;;;7.09;52.88;99599.80;2066768;95;25848;-78
2021/12/30 03:16:02;;;;;;;;;;;;;;;7.09;52.89;99600.67;2069994;94;25826;-77
2021/12/30 03:19:44;;;;;;;;;;;;;;;7.10;52.90;99599.83;2051821;95;25748;-77
2021/12/30 03:23:21;;;;;;;;;;;;;;;7.13;52.89;99603.34;2076822;93;25919;-76
2021/12/30 03:26:50;;;;;;;;;;;;;;;7.13;52.90;99599.45;2073043;93;25880;-77
2021/12/30 03:33:53;;;;;;;;;;;;;;;7.13;52.89;99608.10;2012871;97;25731;-79
2021/12/30 03:37:31;;;;;;;;;;;;;;;7.15;52.91;99612.02;2011067;97;25777;-77
2021/12/30 03:40:52;;;;;;;;;;;;;;;7.16;52.88;99621.56;2011092;96;26371;-78
2021/12/30 03:44:13;;;;;;;;;;;;;;;7.17;52.86;99623.31;2071354;94;25949;-78
2021/12/30 03:47:48;;;;;;;;;;;;;;;7.17;52.89;99629.80;2096021;93;25257;-77
2021/12/30 03:51:25;;;;;;;;;;;;;;;7.18;52.93;99631.11;2097880;93;25897;-76
2021/12/30 03:54:57;;;;;;;;;;;;;;;7.19;52.91;99630.69;2099285;94;25963;-77
2021/12/30 03:58:24;;;;;;;;;;;;;;;7.20;52.89;99641.11;2092800;93;25778;-78
2021/12/30 04:02:04;;;;;;;;;;;;;;;7.21;52.89;99642.86;2080465;93;26420;-77
2021/12/30 04:05:40;;;;;;;;;;;;;;;7.21;52.88;99651.06;2091766;94;25734;-79
2021/12/30 04:09:19;;;;;;;;;;;;;;;7.23;52.86;99662.36;2154813;91;25796;-79
2021/12/30 04:13:04;;;;;;;;;;;;;;;;;;;;;
2021/12/30 04:16:22;;;;;;;;;;;;;;;7.23;52.86;99671.01;2156791;91;25876;-80
2021/12/30 04:19:43;;;;;;;;;;;;;;;7.24;52.86;99679.66;2135914;92;25745;-79
2021/12/30 04:23:07;;;;;;;;;;;;;;;7.25;52.88;99674.92;2138482;91;25628;-80
2021/12/30 04:26:40;;;;;;;;;;;;;;;7.24;52.82;99676.64;2138682;92;25960;-80
2021/12/30 04:30:13;;;;;;;;;;;;;;;7.25;52.81;99673.20;2168460;88;25745;-80
2021/12/30 04:33:47;;;;;;;;;;;;;;;7.26;52.83;99671.52;2201026;88;25828;-80
2021/12/30 04:37:09;;;;;;;;;;;;;;;7.25;52.82;99668.02;2206453;88;25724;-79
2021/12/30 04:40:43;;;;;;;;;;;;;;;7.25;52.88;99665.42;2179508;89;26675;-80
2021/12/30 04:44:26;;;;;;;;;;;;;;;7.27;52.88;99666.35;2202860;88;25663;-79
2021/12/30 04:47:39;;;;;;;;;;;;;;;7.28;52.89;99663.33;2202971;89;25802;-79
2021/12/30 04:51:13;;;;;;;;;;;;;;;7.29;52.92;99661.22;2203573;88;25711;-80
2021/12/30 04:54:36;;;;;;;;;;;;;;;7.29;52.92;99658.63;2187879;88;25672;-78
2021/12/30 04:58:12;;;;;;;;;;;;;;;7.30;52.96;99659.08;2243014;86;25689;-79
2021/12/30 05:01:33;;;;;;;;;;;;;;;7.29;52.98;99655.61;2254672;86;25748;-79
2021/12/30 05:05:09;;;;;;;;;;;;;;;7.31;53.05;99657.80;2246351;86;25838;-80
2021/12/30 05:08:35;;;;;;;;;;;;;;;7.32;53.04;99653.48;2240244;86;25760;-80
2021/12/30 05:12:04;;;;;;;;;;;;;;;7.32;53.04;99658.67;2249509;86;25672;-80
2021/12/30 05:15:30;;;;;;;;;;;;;;;7.33;53.07;99652.25;2250561;86;25624;-78
2021/12/30 05:19:03;;;;;;;;;;;;;;;7.36;53.13;99661.83;2242798;86;25739;-79
2021/12/30 05:23:06;;;;;;;;;;;;;;;;;;;;;
2021/12/30 05:26:18;;;;;;;;;;;;;;;7.37;53.18;99674.37;2157019;90;26330;-80
2021/12/30 05:29:48;;;;;;;;;;;;;;;7.38;53.20;99687.36;2136800;91;25832;-79
2021/12/30 05:33:19;;;;;;;;;;;;;;;7.40;53.23;99665.37;2160086;88;25875;-78
2021/12/30 05:36:52;;;;;;;;;;;;;;;7.40;53.22;99646.80;2158965;89;25928;-79
2021/12/30 05:40:30;;;;;;;;;;;;;;;7.42;53.28;99654.17;2157995;90;25695;-79
2021/12/30 05:44:01;;;;;;;;;;;;;;;7.42;53.25;99658.06;2157165;89;26955;-79
2021/12/30 05:47:34;;;;;;;;;;;;;;;7.43;53.29;99659.84;2156768;90;25776;-80
2021/12/30 05:51:19;;;;;;;;;;;;;;;7.43;53.31;99676.70;2135531;90;25690;-80
2021/12/30 05:55:13;;;;;;;;;;;;;;;7.46;53.30;99692.33;2157440;89;25924;-80
2021/12/30 05:58:54;;;;;;;;;;;;;;;7.46;53.32;99698.81;2156381;90;25828;-80
2021/12/30 06:02:33;;;;;;;;;;;;;;;7.46;53.33;99709.58;2154097;90;25850;-79
2021/12/30 06:06:00;;;;;;;;;;;;;;;7.47;53.32;99705.75;2110074;92;25918;-80
2021/12/30 06:09:44;;;;;;;;;;;;;;;7.46;53.37;99698.81;2108896;92;25751;-79
2021/12/30 06:13:13;;;;;;;;;;;;;;;7.47;53.37;99700.56;2035092;96;25346;-80
2021/12/30 06:17:01;;;;;;;;;;;;;;;7.48;53.42;99713.98;2020575;96;26532;-79
2021/12/30 06:20:35;;;;;;;;;;;;;;;7.50;53.41;99723.11;2036846;95;25764;-80
2021/12/30 06:24:09;;;;;;;;;;;;;;;7.50;53.41;99729.59;2123949;91;25798;-80
2021/12/30 06:27:46;;;;;;;;;;;;;;;7.50;53.46;99729.59;2130222;92;25721;-80
2021/12/30 06:31:09;;;;;;;;;;;;;;;7.52;53.50;99733.08;2164977;89;25800;-78
2021/12/30 06:34:41;;;;;;;;;;;;;;;7.54;53.49;99736.61;2166913;89;25735;-80
2021/12/30 06:38:23;;;;;;;;;;;;;;;7.54;53.50;99725.81;2167289;89;25923;-80
2021/12/30 06:41:49;;;;;;;;;;;;;;;7.55;53.56;99730.15;2172709;89;25879;-80
2021/12/30 06:45:45;;;;;;;;;;;;;;;7.57;53.55;99740.58;2176363;89;25709;-79
2021/12/30 06:49:09;;;;;;;;;;;;;;;7.58;53.57;99735.41;2162710;89;25772;-80
2021/12/30 06:52:33;;;;;;;;;;;;;;;7.59;53.58;99744.06;2158239;89;25921;-79
2021/12/30 06:56:00;;;;;;;;;;;;;;;7.61;53.60;99750.61;2172119;89;25743;-81
2021/12/30 06:59:29;;;;;;;;;;;;;;;7.64;53.65;99746.80;2176462;89;25279;-80
2021/12/30 07:03:09;;;;;;;;;;;;;;;7.67;53.65;99749.05;2175519;89;25656;-79
2021/12/30 07:06:35;;;;;;;;;;;;;;;7.71;53.68;99747.41;2171138;89;25821;-80
2021/12/30 07:10:04;;;;;;;;;;;;;;;7.73;53.62;99747.91;2240246;86;25696;-80
2021/12/30 07:13:30;;;;;;;;;;;;;;;7.75;53.63;99751.41;2255641;86;26002;-79
2021/12/30 07:17:07;;;;;;;;;;;;;;;7.76;53.65;99758.76;2114428;91;26123;-80
2021/12/30 07:20:59;;;;;;;;;;;;;;;7.79;53.65;99765.33;2070663;93;25841;-79
2021/12/30 07:24:39;;;;;;;;;;;;;;;7.81;53.70;99759.77;2071116;95;25844;-80
2021/12/30 07:28:10;;;;;;;;;;;;;;;7.83;53.68;99759.79;2103952;92;25741;-79
2021/12/30 07:31:44;;;;;;;;;;;;;;;7.84;53.68;99766.76;2105210;91;25816;-78
2021/12/30 07:35:11;;;;;;;;;;;;;;;7.85;53.72;99773.27;2067002;92;25262;-80
2021/12/30 07:38:32;;;;;;;;;;;;;;;7.87;53.73;99775.49;2045150;94;25842;-80
2021/12/30 07:42:04;;;;;;;;;;;;;;;7.88;53.72;99769.88;2062476;94;26016;-80
2021/12/30 07:45:48;;;;;;;;;;;;;;;7.89;53.76;99772.92;2076517;93;25744;-80
2021/12/30 07:49:15;;;;;;;;;;;;;;;7.91;53.80;99767.36;1960099;97;25924;-80
2021/12/30 07:52:40;;;;;;;;;;;;;;;7.93;53.79;99769.16;2002907;96;25966;-79
2021/12/30 07:56:09;;;;;;;;;;;;;;;7.97;53.79;99765.80;2002076;97;25736;-75
2021/12/30 07:59:34;;;;;;;;;;;;;;;8.01;53.81;99759.83;1988611;98;25822;-77
2021/12/30 08:03:00;;;;;;;;;;;;;;;8.07;53.81;99757.81;1990483;98;25770;-77
2021/12/30 08:06:33;;;;;;;;;;;;;;;8.10;53.83;99758.27;1968073;98;25441;-77
2021/12/30 08:10:13;;;;;;;;;;;;;;;8.14;53.85;99765.32;1955563;98;26021;-78
2021/12/30 08:13:42;;;;;;;;;;;;;;;8.14;53.93;99767.92;2027085;92;25904;-77
2021/12/30 08:17:02;;;;;;;;;;;;;;;8.14;53.94;99768.79;2086495;93;25884;-80
2021/12/30 08:20:27;;;;;;;;;;;;;;;8.16;53.96;99780.49;2087986;93;26125;-77
2021/12/30 08:23:55;;;;;;;;;;;;;;;8.17;54.00;99778.38;2086635;93;25774;-77
2021/12/30 08:27:21;;;;;;;;;;;;;;;8.20;54.01;99780.63;2127979;90;26006;-78
2021/12/30 08:30:58;;;;;;;;;;;;;;;8.22;53.99;99781.52;2135991;91;25936;-80
2021/12/30 08:34:24;;;;;;;;;;;;;;;8.22;54.03;99776.75;2120977;90;26601;-77
2021/12/30 08:37:48;;;;;;;;;;;;;;;8.25;54.04;99784.61;2140279;90;25920;-82
2021/12/30 08:41:12;;;;;;;;;;;;;;;8.72;65.49;99779.20;2143102;91;26096;-83
2021/12/30 08:44:38;;;;;;;;;;;;;;;9.80;67.58;99776.06;2151019;89;25825;-83
2021/12/30 08:48:06;;;;;;;;;;;;;;;10.61;67.42;99776.03;2165217;89;25917;-78
2021/12/30 08:51:36;;;;;;;;;;;;;;;11.29;67.00;99782.52;2080672;94;25894;-87
2021/12/30 08:55:04;;;;;;;;;;;;;;;11.56;66.16;99771.92;2083414;90;25969;-82
2021/12/30 08:58:30;;;;;;;;;;;;;;;11.82;64.51;99786.11;2148193;90;25874;-82
2021/12/30 09:02:08;;;;;;;;;;;;;;;11.73;64.26;99788.63;2154425;90;26045;-80
2021/12/30 09:05:44;;;;;;;;;;;;;;;11.79;63.96;99797.83;2162762;90;25919;-81
2021/12/30 09:09:28;;;;;;;;;;;;;;;11.67;63.05;99797.70;2181907;89;26338;-80
2021/12/30 09:12:56;;;;;;;;;;;;;;;11.49;62.49;99791.88;2181511;85;25793;-81
2021/12/30 09:16:29;;;;;;;;;;;;;;;11.30;62.22;99792.09;2178157;89;25809;-82
2021/12/30 09:20:07;;;;;;;;;;;;;;;11.13;61.96;99787.55;2058107;94;25817;-81
2021/12/30 09:23:42;;;;;;;;;;;;;;;10.96;61.80;99775.61;2025797;94;26059;-81
2021/12/30 09:27:20;;;;;;;;;;;;;;;10.83;61.66;99765.05;2050082;94;25829;-82
2021/12/30 09:34:21;;;;;;;;;;;;;;;10.60;61.46;99750.41;1955126;99;26135;-81
2021/12/30 09:42:01;;;;;;;;;;;;;;;10.45;61.28;99757.13;1902567;102;25887;-82
2021/12/30 09:49:47;;;;;;;;;;;;;;;10.29;61.17;99749.51;1846566;105;26433;-80
2021/12/30 09:53:07;;;;;;;;;;;;;;;10.21;61.09;99750.67;1845194;105;25865;-81
2021/12/30 09:56:40;;;;;;;;;;;;;;;10.15;60.92;99750.14;1845712;105;25844;-81
2021/12/30 10:00:40;;;;;;;;;;;;;;;10.10;60.83;99741.83;1843513;105;26898;-81
2021/12/30 10:04:19;;;;;;;;;;;;;;;10.06;60.68;99747.42;1843915;105;25845;-82
2021/12/30 10:07:55;;;;;;;;;;;;;;;10.05;60.52;99747.38;1827401;105;25897;-82
2021/12/30 10:11:16;;;;;;;;;;;;;;;10.03;60.54;99746.06;1837539;105;25862;-81
2021/12/30 10:14:41;;;;;;;;;;;;;;;9.98;60.32;99741.20;1851366;105;25804;-84
2021/12/30 10:18:02;;;;;;;;;;;;;;;9.94;60.41;99740.71;1937155;99;25732;-81
2021/12/30 10:21:27;;;;;;;;;;;;;;;9.89;60.34;99741.95;1937979;98;25875;-80
2021/12/30 10:24:59;;;;;;;;;;;;;;;9.86;60.25;99745.80;1958428;99;26549;-82
2021/12/30 10:28:40;;;;;;;;;;;;;;;9.84;60.30;99738.38;1914242;101;25984;-82
2021/12/30 10:32:51;;;;;;;;;;;;;;;;;;;;;
2021/12/30 10:36:46;;;;;;;;;;;;;;;9.79;60.23;99736.14;1854979;104;26369;-80
2021/12/30 10:40:30;;;;;;;;;;;;;;;9.75;60.16;99725.20;1829148;101;25900;-79
2021/12/30 10:44:02;;;;;;;;;;;;;;;9.72;60.10;99721.67;1954635;98;25753;-82
2021/12/30 10:48:08;;;;;;;;;;;;;;;9.69;60.01;99724.70;1981862;98;26028;-82
2021/12/30 10:51:59;;;;;;;;;;;;;;;9.66;60.02;99725.95;1943177;99;26064;-82
2021/12/30 10:55:32;;;;;;;;;;;;;;;9.65;59.99;99715.50;1975687;93;25940;-80
2021/12/30 10:59:21;;;;;;;;;;;;;;;9.53;59.82;99718.78;2023709;95;25845;-82
2021/12/30 11:03:05;;;;;;;;;;;;;;;9.42;59.68;99712.09;2040636;95;26040;-80
2021/12/30 11:06:38;;;;;;;;;;;;;;;9.33;59.71;99722.34;2027510;95;25840;-81
2021/12/30 11:10:07;;;;;;;;;;;;;;;9.28;59.70;99727.89;2114615;91;25682;-81
2021/12/30 11:13:36;;;;;;;;;;;;;;;9.24;59.64;99722.16;2157010;89;25683;-78
2021/12/30 11:17:16;;;;;;;;;;;;;;;9.20;59.84;99735.53;2141037;89;25589;-82
2021/12/30 11:20:55;;;;;;;;;;;;;;;9.25;59.97;99723.94;2167301;89;25928;-80
2021/12/30 11:28:03;;;;;;;;;;;;;;;9.42;59.98;99710.80;2079285;93;26239;-83
2021/12/30 11:35:15;;;;;;;;;;;;;;;9.49;59.95;99713.52;2031606;94;25623;-81
2021/12/30 11:38:43;;;;;;;;;;;;;;;9.50;59.82;99706.15;2021520;94;25879;-81
2021/12/30 11:42:28;;;;;;;;;;;;;;;9.52;59.85;99709.63;2044447;95;25749;-81
2021/12/30 11:45:51;;;;;;;;;;;;;;;9.57;59.71;99710.17;2014156;95;25857;-82
2021/12/30 11:49:26;;;;;;;;;;;;;;;9.64;60.09;99701.61;2020795;95;26259;-81
2021/12/30 11:53:11;;;;;;;;;;;;;;;9.76;60.37;99700.95;2006180;94;25695;-81
2021/12/30 11:56:31;;;;;;;;;;;;;;;9.94;60.49;99696.02;2023222;96;25911;-81
2021/12/30 12:00:03;;;;;;;;;;;;;;;10.11;60.48;99698.00;2018827;96;25751;-86
2021/12/30 12:03:35;;;;;;;;;;;;;;;10.68;65.75;99684.02;2021147;96;26164;-79
2021/12/30 12:07:14;;;;;;;;;;;;;;;11.42;64.15;99686.10;2028354;96;25783;-77
2021/12/30 12:10:24;;;;;;;;;;;;;;;11.56;62.92;99701.01;2017351;96;25844;-80
2021/12/30 12:17:44;;;;;;;;;;;;;;;11.57;61.93;99693.61;1963343;98;25842;-79
2021/12/30 12:21:11;;;;;;;;;;;;;;;11.54;61.61;99700.55;1964693;98;25930;-79
2021/12/30 12:24:43;;;;;;;;;;;;;;;11.45;61.42;99707.02;1985957;97;25826;-77
2021/12/30 12:28:50;;;;;;;;;;;;;;;11.35;61.24;99708.66;2003736;97;25896;-78
2021/12/30 12:32:03;;;;;;;;;;;;;;;11.29;61.18;99709.89;2034374;95;26915;-77
2021/12/30 12:35:32;;;;;;;;;;;;;;;11.21;61.09;99706.34;2064216;94;25944;-80
2021/12/30 12:39:08;;;;;;;;;;;;;;;11.14;60.85;99696.28;2141448;89;25316;-78
2021/12/30 12:42:55;;;;;;;;;;;;;;;11.10;60.80;99697.08;2178851;89;25724;-78
2021/12/30 12:46:20;;;;;;;;;;;;;;;11.03;60.72;99693.97;2072219;94;25803;-80
2021/12/30 12:49:45;;;;;;;;;;;;;;;10.96;60.67;99685.20;2082935;94;25845;-80
2021/12/30 12:53:28;;;;;;;;;;;;;;;10.90;60.66;99673.83;2065365;93;26016;-79
2021/12/30 12:57:04;;;;;;;;;;;;;;;10.80;60.50;99667.63;2088116;93;25879;-80
2021/12/30 13:00:35;;;;;;;;;;;;;;;10.71;60.29;99678.84;1944483;100;25932;-81
2021/12/30 13:04:00;;;;;;;;;;;;;;;10.60;60.25;99688.28;1930650;100;26350;-79
2021/12/30 13:07:24;;;;;;;;;;;;;;;10.52;60.17;99695.98;1929832;100;25893;-80
2021/12/30 13:10:48;;;;;;;;;;;;;;;10.44;60.19;99696.32;1951285;99;25627;-80
2021/12/30 13:14:30;;;;;;;;;;;;;;;10.35;60.11;99684.03;1980238;98;25991;-79
2021/12/30 13:17:58;;;;;;;;;;;;;;;10.27;59.96;99693.48;2007822;95;25947;-79
2021/12/30 13:21:21;;;;;;;;;;;;;;;10.17;59.84;99696.79;2053026;94;25831;-79
2021/12/30 13:24:57;;;;;;;;;;;;;;;10.10;59.99;99697.56;2055683;95;25835;-80
2021/12/30 13:28:34;;;;;;;;;;;;;;;10.06;60.06;99703.15;2053713;95;26103;-80
2021/12/30 13:32:09;;;;;;;;;;;;;;;10.01;60.04;99697.41;2126750;91;25846;-79
2021/12/30 13:35:37;;;;;;;;;;;;;;;9.97;60.09;99701.70;2137653;86;25858;-78
2021/12/30 13:39:18;;;;;;;;;;;;;;;9.91;60.13;99708.98;2276282;85;25909;-80
2021/12/30 13:43:27;;;;;;;;;;;;;;;9.88;60.24;99714.14;2237215;87;25865;-79
2021/12/30 13:47:00;;;;;;;;;;;;;;;9.83;60.26;99723.62;2238476;87;25820;-80
2021/12/30 13:50:38;;;;;;;;;;;;;;;9.77;60.37;99723.95;2224694;87;25720;-80
2021/12/30 13:54:09;;;;;;;;;;;;;;;9.75;60.47;99723.91;2235952;87;25798;-80
2021/12/30 14:00:11;;;;;;;26.55;16.45;;;;;;;9.92;66.08;99714.66;2526715;77;29534;-79
2021/12/30 14:03:59;;;;;;;30.68;15.08;;;;;;;10.59;65.71;99721.70;2519070;78;25850;-81
2021/12/30 14:07:24;;;;;;;30.00;18.15;;;;;;;10.81;66.17;99716.33;2519209;78;25598;-80
2021/12/30 14:10:59;;;;;;;28.07;16.93;;;;;;;10.86;64.33;99709.42;2515614;77;25639;-80
2021/12/30 14:14:35;;;;;;;41.40;19.77;;;;;;;10.74;63.74;99700.17;2428958;81;25755;-81
2021/12/30 14:18:18;;;;;;;32.78;21.50;;;;;;;10.61;63.40;99695.23;2427691;81;26026;-80
2021/12/30 14:21:50;;;;;;;36.88;20.15;;;;;;;10.48;62.99;99703.75;2420943;81;25662;-80
2021/12/30 14:25:29;;;;;;;43.38;22.35;;;;;;;10.37;62.76;99697.09;2223354;88;25909;-80
2021/12/30 14:29:19;;;;;;;38.55;20.92;;;;;;;10.28;62.56;99686.11;2222951;88;25715;-81
2021/12/30 14:32:43;;;;;;;34.05;21.35;;;;;;;10.21;62.47;99692.49;2219989;88;25733;-81
2021/12/30 14:36:26;;;;;;;35.48;21.70;;;;;;;10.13;62.34;99682.85;2204624;87;25339;-80
2021/12/30 14:40:04;;;;;;;35.05;21.62;;;;;;;10.06;62.16;99684.05;2224061;88;25736;-81
2021/12/30 14:43:26;;;;;;;43.42;22.82;;;;;;;9.99;62.07;99691.30;2221524;84;25709;-79
2021/12/30 14:47:35;;;;;;;40.08;22.00;;;;;;;9.89;62.03;99691.61;2224580;87;25657;-81
2021/12/30 14:51:30;;;;;;;40.35;23.27;;;;;;;9.82;62.04;99691.04;2216408;87;25848;-81
2021/12/30 14:54:56;;;;;;;43.15;22.35;;;;;;;9.78;62.06;99694.45;2266868;87;25869;-80
2021/12/30 14:58:23;;;;;;;38.92;22.07;;;;;;;9.74;62.01;99701.77;2241140;86;25760;-81
2021/12/30 15:01:54;;;;;;;39.65;21.90;;;;;;;9.69;62.00;99702.58;2257260;86;25808;-81
2021/12/30 15:05:27;;;;;;;40.28;22.90;;;;;;;9.66;62.04;99699.92;2248055;88;25916;-81
2021/12/30 15:09:19;;;;;;;41.25;23.52;;;;;;;9.65;62.05;99711.59;2247548;88;25343;-81
2021/12/30 15:12:57;;;;;;;40.35;22.07;;;;;;;9.61;62.05;99708.50;2245611;88;25715;-83
2021/12/30 15:16:47;;;;;;;41.35;23.80;;;;;;;9.60;62.09;99711.53;2204262;89;25808;-81
2021/12/30 15:20:22;;;;;;;39.75;21.93;;;;;;;9.61;62.11;99724.11;2206908;87;26036;-81
2021/12/30 15:24:10;;;;;;;;;;;;;;;;;;;;;
2021/12/30 15:27:48;;;;;;;43.60;24.52;;;;;;;9.57;62.15;99719.71;2240826;87;25751;-81
2021/12/30 15:34:55;;;;;;;43.08;24.90;;;;;;;9.56;62.14;99730.98;2048551;95;25936;-82
2021/12/30 15:38:25;;;;;;;41.92;23.15;;;;;;;9.53;62.17;99723.98;2046969;96;25975;-81
2021/12/30 15:42:04;;;;;;;41.00;23.15;;;;;;;9.52;62.20;99713.53;2048491;95;26159;-82
2021/12/30 15:45:40;;;;;;;44.40;24.92;;;;;;;9.52;62.22;99729.15;2048733;95;25392;-82
2021/12/30 15:49:24;;;;;;;43.87;23.20;;;;;;;9.54;62.41;99727.46;2052646;94;25907;-81
2021/12/30 15:52:58;;;;;;;44.08;23.15;;;;;;;9.53;62.28;99713.58;2051255;93;26050;-82
2021/12/30 15:56:22;;;;;;;37.05;23.35;;;;;;;9.52;62.20;99708.33;2003455;96;25798;-82
2021/12/30 15:59:54;;;;;;;36.93;22.05;;;;;;;9.49;62.23;99732.59;2031743;95;25748;-82
2021/12/30 16:03:33;;;;;;;36.38;21.80;;;;;;;9.49;62.22;99720.02;2035355;95;25778;-82
2021/12/30 16:07:01;;;;;;;38.35;21.87;;;;;;;9.48;62.18;99707.83;2017430;96;25859;-82
2021/12/30 16:10:27;;;;;;;35.70;21.12;;;;;;;9.45;62.18;99718.66;2029665;92;25957;-82
2021/12/30 16:13:51;;;;;;;36.08;22.82;;;;;;;9.43;62.19;99729.88;2142023;92;26237;-81
2021/12/30 16:17:17;;;;;;;37.65;22.50;;;;;;;9.41;62.18;99730.27;2127667;90;25773;-82
2021/12/30 16:20:53;;;;;;;42.10;23.73;;;;;;;9.40;62.21;99720.29;2147047;92;25694;-82
2021/12/30 16:24:21;;;;;;;39.27;22.05;;;;;;;9.39;62.20;99718.55;2146952;89;25786;-82
2021/12/30 16:31:34;;;;;;;37.38;22.17;;;;;;;9.34;62.26;99694.16;2247498;85;26463;-82
2021/12/30 16:35:06;;;;;;;42.10;22.67;;;;;;;9.33;62.24;99682.02;2264782;85;25774;-82
2021/12/30 16:38:35;;;;;;;39.18;21.82;;;;;;;9.32;62.28;99698.48;2266464;86;25693;-79
2021/12/30 16:42:12;;;;;;;36.48;21.82;;;;;;;9.30;62.32;99694.97;2294627;84;25761;-86
2021/12/30 16:45:52;;;;;;;38.23;22.55;;;;;;;9.28;62.32;99708.39;2293841;84;26009;-84
2021/12/30 16:49:23;;;;;;;37.90;22.13;;;;;;;9.25;62.34;99726.53;2329660;84;26028;-81
2021/12/30 16:52:59;;;;;;;40.40;22.67;;;;;;;9.23;62.43;99723.89;2327738;84;25681;-84
2021/12/30 16:56:34;;;;;;;38.35;21.75;;;;;;;9.24;62.40;99728.66;2322547;85;25817;-79
2021/12/30 17:00:11;;;;;;;27.73;17.37;;;;;;;9.22;62.38;99717.38;2301899;84;25333;-85
2021/12/30 17:03:39;;;;;;;31.90;18.27;;;;;;;9.50;63.57;99725.23;2191608;88;26422;-86
2021/12/30 17:07:11;;;;;;;35.92;19.45;;;;;;;9.48;63.37;99727.35;2213370;88;26501;-83
2021/12/30 17:11:21;;;;;;;;;;;;;;;;;;;;;
2021/12/30 17:15:00;;;;;;;34.55;19.55;;;;;;;9.59;63.35;99718.02;2111621;93;25926;-82
2021/12/30 17:18:21;;;;;;;32.13;19.98;;;;;;;9.62;63.33;99721.98;2113196;91;25961;-82
2021/12/30 17:21:47;;;;;;;;;;;;;;;9.65;63.29;99720.70;2112557;91;25263;-82
2021/12/30 17:25:12;;;;;;;29.67;18.95;;;;;;;9.67;63.27;99714.68;2100264;94;26436;-83
2021/12/30 17:28:38;;;;;;;28.62;18.73;;;;;;;9.68;63.20;99709.05;2132845;89;25864;-82
2021/12/30 17:32:10;;;;;;;27.75;18.07;;;;;;;9.69;63.24;99714.30;2152363;89;26393;-82
2021/12/30 17:35:39;;;;;;;37.30;21.00;;;;;;;9.72;63.23;99725.19;2155340;90;25737;-83
2021/12/30 17:39:21;;;;;;;27.60;17.02;;;;;;;9.74;63.20;99741.69;2147806;86;25753;-82
2021/12/30 17:42:59;;;;;;;;;;;;;;;;;;;;;
2021/12/30 17:46:27;;;;;;;27.25;18.17;;;;;;;9.77;63.20;99749.55;2201515;88;25775;-88
2021/12/30 17:50:08;;;;;;;;;;;;;;;9.80;63.23;99751.33;2234404;85;25997;-85
2021/12/30 17:53:49;;;;;;;30.92;17.98;;;;;;;9.81;63.20;99738.33;2287347;85;25667;-87
2021/12/30 17:57:40;;;;;;;;;;;;;;;;;;;;;
2021/12/30 18:01:08;;;;;;;26.87;17.65;;;;;;;9.81;63.17;99748.74;2177791;88;25856;-86
2021/12/30 18:05:06;;;;;;;29.35;17.45;;;;;;;9.85;63.17;99745.33;2142954;90;25860;-83
2021/12/30 18:08:50;;;;;;;26.42;17.98;;;;;;;9.87;63.14;99752.75;2135939;91;25920;-87
2021/12/30 18:12:11;;;;;;;27.80;17.95;;;;;;;9.89;63.19;99764.08;2112333;91;25954;-85
2021/12/30 18:15:43;;;;;;;22.52;15.20;;;;;;;9.90;63.21;99740.22;2131780;92;25778;-86
2021/12/30 18:23:03;;;;;;;30.12;17.05;;;;;;;9.95;63.18;99745.05;2058585;95;25669;-81
2021/12/30 18:30:12;;;;;;;24.70;16.80;;;;;;;9.97;63.22;99736.86;1941221;101;25787;-81
2021/12/30 18:33:41;;;;;;;27.58;16.93;;;;;;;9.99;63.24;99737.77;1940680;100;25821;-81
2021/12/30 18:37:28;;;;;;;29.50;17.35;;;;;;;10.01;63.25;99742.55;1941277;101;25987;-81
2021/12/30 18:41:17;;;;;;;23.80;16.87;;;;;;;10.04;63.25;99743.03;1986987;98;26431;-80
2021/12/30 18:48:58;;;;;;;25.20;15.70;;;;;;;10.08;63.21;99720.09;1939491;100;25502;-82
2021/12/30 18:52:30;;;;;;;26.68;18.15;;;;;;;10.09;63.22;99710.11;1956368;96;26135;-82
2021/12/30 18:55:58;;;;;;;26.90;16.87;;;;;;;10.07;63.22;99717.05;2000496;98;25722;-82
2021/12/30 18:59:30;;;;;;;24.77;16.25;;;;;;;10.11;63.25;99725.34;1995699;95;25954;-81
2021/12/30 19:03:24;;;;;;;;;;;;;;;;;;;;;
2021/12/30 19:07:05;;;;;;;23.52;13.75;;;;;;;10.11;63.21;99736.63;2041319;94;25778;-82